Medemborg — PJAG — position and weather

sailwx.info

Track history (hours):
 
Tides and Currents Weather Stations Pressure Air Temp Water Temp Dewpoint Dewpoint Depression Visibility Wind Speed Wind Dir Waves Ship Positions

Medemborg

Last reported at 2014-Jul-24 14:32 UTC. Time now 2014-Jul-24 14:38 UTC.
Position N 51°54' E 004°14'.

Length 135 m; draft 7.2 m.

Type: Cargo ship. MMSI: 306581000.

Date/timePositionNaut miles runAvg speedWind from/ knotsBaromVisibWave heightAir tempDewpointWater temp
2014-Jul-24 14:32N 51°54' E 004°14'0 0.0
2014-Jul-24 13:32N 51°54' E 004°14'0 0.0
2014-Jul-24 12:32N 51°54' E 004°14'0 0.0
2014-Jul-24 11:32N 51°54' E 004°14'0 0.0
2014-Jul-24 10:32N 51°54' E 004°14'0 0.0
2014-Jul-24 09:32N 51°54' E 004°14'0 0.0
2014-Jul-24 08:32N 51°54' E 004°14'0 0.0
2014-Jul-24 07:26N 51°54' E 004°14'0 0.0
2014-Jul-24 06:32N 51°54' E 004°14'0 0.0
2014-Jul-24 05:29N 51°54' E 004°14'0 0.0
2014-Jul-24 04:32N 51°54' E 004°14'0 0.0
2014-Jul-24 03:32N 51°54' E 004°14'0 0.0
2014-Jul-24 02:32N 51°54' E 004°14'0 0.0
2014-Jul-24 01:32N 51°54' E 004°14'0 0.0
2014-Jul-24 00:32N 51°54' E 004°14'0 0.0
2014-Jul-23 23:32N 51°54' E 004°14'0 0.0
2014-Jul-23 22:32N 51°54' E 004°14'0 0.0
2014-Jul-23 21:32N 51°54' E 004°14'1 0.8
2014-Jul-23 20:33N 51°54' E 004°14'9 9.0
2014-Jul-23 19:33N 51°60' E 004°02'1010.4
2014-Jul-23 18:33N 52°04' E 003°46'1212.3
2014-Jul-23 17:34N 52°16' E 003°46'1212.4
2014-Jul-23 16:34N 52°28' E 003°50'1312.5
2014-Jul-23 15:33N 52°41' E 003°54'1212.3
2014-Jul-23 14:34N 52°53' E 003°58'1111.4
2014-Jul-23 13:33N 53°03' E 004°08'1212.2
2014-Jul-23 12:33N 53°10' E 004°23'1312.8
2014-Jul-23 11:33N 53°22' E 004°32'1312.8
2014-Jul-23 10:33N 53°30' E 004°49'1414.4
2014-Jul-23 09:34N 53°35' E 005°11'1414.1
2014-Jul-23 08:33N 53°40' E 005°34'1313.4
2014-Jul-23 07:33N 53°45' E 005°55'1312.7
2014-Jul-23 06:33N 53°49' E 006°16'1212.1
2014-Jul-23 05:33N 53°52' E 006°35'1212.2
2014-Jul-23 04:33N 53°55' E 006°55'1312.3
2014-Jul-23 03:33N 53°58' E 007°16'1313.0
2014-Jul-23 02:33N 54°01' E 007°37'1313.5
2014-Jul-23 01:33N 54°01' E 008°00'1413.9
2014-Jul-23 00:33N 53°59' E 008°23'1514.9
2014-Jul-22 23:33N 53°51' E 008°45'1312.8
2014-Jul-22 22:33N 53°53' E 009°06'2 1.7
2014-Jul-22 21:32N 53°54' E 009°09'7 7.1
2014-Jul-22 20:33N 53°59' E 009°17'9 8.4
2014-Jul-22 19:32N 54°07' E 009°20'9 8.0
2014-Jul-22 18:28N 54°12' E 009°32'37 3.0
2014-Jul-22 06:20N 54°32' E 010°25'1012.7
2014-Jul-22 05:33N 54°35' E 010°41'1312.9
2014-Jul-22 04:33N 54°36' E 011°04'1313.2
2014-Jul-22 03:33N 54°32' E 011°25'1313.0
2014-Jul-22 02:33N 54°27' E 011°46'1312.7
2014-Jul-22 01:33N 54°27' E 012°07'1212.2
2014-Jul-22 00:33N 54°38' E 012°16'1312.9
2014-Jul-21 23:33N 54°45' E 012°35'1312.7
2014-Jul-21 22:33N 54°50' E 012°55'1312.6
2014-Jul-21 21:33N 54°55' E 013°16'1312.6
2014-Jul-21 20:30N 54°59' E 013°38'212.7
2014-Jul-21 20:18N 55°00' E 013°42'1013.0
2014-Jul-21 19:33N 55°03' E 013°58'1312.8
2014-Jul-21 18:33N 55°12' E 014°14'1313.3
2014-Jul-21 17:33N 55°23' E 014°28'1312.8
2014-Jul-21 16:33N 55°31' E 014°46'4013.2
2014-Jul-21 13:33N 55°50' E 015°47'1413.5
2014-Jul-21 12:33N 55°57' E 016°08'1313.5
2014-Jul-21 11:33N 56°03' E 016°29'4013.3
2014-Jul-21 08:33N 56°27' E 017°27'1313.1
2014-Jul-21 07:33N 56°35' E 017°46'1813.3
2014-Jul-21 06:12N 56°46' E 018°12'913.4
2014-Jul-21 05:33N 56°51' E 018°24'1413.4
2014-Jul-21 04:31N 57°02' E 018°40'1313.4
2014-Jul-21 03:32N 57°13' E 018°55'1513.3
2014-Jul-21 02:26N 57°25' E 019°10'2613.3
2014-Jul-21 00:28N 57°45' E 019°39'2613.0
2014-Jul-20 22:26N 58°07' E 020°08'1213.3
2014-Jul-20 21:33N 58°16' E 020°21'2713.4
2014-Jul-20 19:31N 58°38' E 020°52'1313.4
2014-Jul-20 18:33N 58°49' E 021°07'1313.5
2014-Jul-20 17:33N 58°60' E 021°22'7712.9
2014-Jul-20 11:33N 59°40' E 023°31'1313.3
2014-Jul-20 10:33N 59°44' E 023°56'6013.5
2014-Jul-20 06:05N 59°56' E 025°54'2113.0
2014-Jul-20 04:28N 60°01' E 026°34'10812.1
2014-Jul-19 19:28N 59°53' E 030°10'3 2.9
2014-Jul-19 18:32N 59°55' E 030°14'0 0.0
2014-Jul-19 17:32N 59°55' E 030°14'0 0.0
2014-Jul-19 16:32N 59°55' E 030°14'0 0.0
2014-Jul-19 15:32N 59°55' E 030°14'0 0.0
2014-Jul-19 14:32N 59°55' E 030°14'0 0.0
2014-Jul-19 13:32N 59°55' E 030°14'0 0.0
2014-Jul-19 12:32N 59°55' E 030°14'0 0.0
2014-Jul-19 11:32N 59°55' E 030°14'0 0.0
2014-Jul-19 10:29N 59°55' E 030°14'0 0.0
2014-Jul-19 01:32N 59°55' E 030°14'0 0.0
2014-Jul-19 00:32N 59°55' E 030°14'0 0.0
2014-Jul-18 23:32N 59°55' E 030°14'0 0.0
2014-Jul-18 22:32N 59°55' E 030°14'0 0.0
2014-Jul-18 21:32N 59°55' E 030°14'0 0.0
2014-Jul-18 20:32N 59°55' E 030°14'0 0.0
2014-Jul-18 19:29N 59°55' E 030°14'0 0.0
2014-Jul-18 18:29N 59°55' E 030°14'0 0.0
2014-Jul-18 17:32N 59°55' E 030°14'0 0.0
2014-Jul-18 16:32N 59°55' E 030°14'0 0.0
2014-Jul-18 15:32N 59°55' E 030°14'0 0.0
2014-Jul-18 14:32N 59°55' E 030°14'0 0.0
2014-Jul-18 13:29N 59°55' E 030°14'0 0.0
2014-Jul-18 12:32N 59°55' E 030°14'0 0.0
2014-Jul-18 11:32N 59°55' E 030°14'0 0.0
2014-Jul-18 10:32N 59°55' E 030°14'0 0.0
2014-Jul-18 09:29N 59°55' E 030°14'0 0.0
2014-Jul-18 08:32N 59°55' E 030°14'0 0.0
2014-Jul-18 07:32N 59°55' E 030°14'0 0.0
2014-Jul-18 06:29N 59°55' E 030°14'0 0.0
2014-Jul-18 05:32N 59°55' E 030°14'0 0.0
2014-Jul-18 04:32N 59°55' E 030°14'0 0.0
2014-Jul-18 03:32N 59°55' E 030°14'0 0.0
2014-Jul-18 02:32N 59°55' E 030°14'0 0.0
2014-Jul-18 01:32N 59°55' E 030°14'0 0.0
2014-Jul-18 00:32N 59°55' E 030°14'0 0.0
2014-Jul-17 23:32N 59°55' E 030°14'0 0.0
2014-Jul-17 22:32N 59°55' E 030°14'0 0.0
2014-Jul-17 21:32N 59°55' E 030°14'0 0.0
2014-Jul-17 20:32N 59°55' E 030°14'0 0.0
2014-Jul-17 19:32N 59°55' E 030°14'0 0.0
2014-Jul-17 18:32N 59°55' E 030°14'0 0.0
2014-Jul-17 17:29N 59°55' E 030°14'0 0.0
2014-Jul-17 16:32N 59°55' E 030°14'0 0.0
2014-Jul-17 15:32N 59°55' E 030°14'0 0.0
2014-Jul-17 14:32N 59°55' E 030°14'0 0.0
2014-Jul-17 13:32N 59°55' E 030°14'0 0.0
2014-Jul-17 12:32N 59°55' E 030°14'0 0.0
2014-Jul-17 07:29N 59°55' E 030°14'0 0.0
2014-Jul-17 06:32N 59°55' E 030°14'0 0.0
2014-Jul-17 05:32N 59°55' E 030°14'0 0.0
2014-Jul-17 04:29N 59°55' E 030°14'0 0.0
2014-Jul-17 03:32N 59°55' E 030°14'0 0.0
2014-Jul-17 02:32N 59°55' E 030°14'0 0.0
2014-Jul-17 01:32N 59°55' E 030°14'0 0.0
2014-Jul-17 00:32N 59°55' E 030°14'0 0.0
2014-Jul-16 23:32N 59°55' E 030°14'0 0.0
2014-Jul-16 22:32N 59°55' E 030°14'0 0.0
2014-Jul-16 21:32N 59°55' E 030°14'0 0.0
2014-Jul-16 20:32N 59°55' E 030°14'0 0.0
2014-Jul-16 19:32N 59°55' E 030°14'0 0.0
2014-Jul-16 18:29N 59°55' E 030°14'0 0.0
2014-Jul-16 17:29N 59°55' E 030°14'0 0.0
2014-Jul-16 16:32N 59°55' E 030°14'0 0.0
2014-Jul-16 15:32N 59°55' E 030°14'0 0.0
2014-Jul-16 14:32N 59°55' E 030°14'0 0.0
2014-Jul-16 13:32N 59°55' E 030°14'0 0.0
2014-Jul-16 12:29N 59°55' E 030°14'0 0.0
2014-Jul-16 11:23N 59°55' E 030°14'0 0.0
2014-Jul-16 10:32N 59°55' E 030°14'0 0.0
2014-Jul-16 09:32N 59°55' E 030°14'0 0.0
2014-Jul-16 08:32N 59°55' E 030°14'0 0.0
2014-Jul-16 07:32N 59°55' E 030°14'0 0.0
2014-Jul-16 06:29N 59°55' E 030°14'0 0.0
2014-Jul-16 05:32N 59°55' E 030°14'0 0.0
2014-Jul-16 04:32N 59°55' E 030°14'0 0.0
2014-Jul-16 03:32N 59°55' E 030°14'0 0.0
2014-Jul-16 02:32N 59°55' E 030°14'0 0.0
2014-Jul-16 01:32N 59°55' E 030°14'0 0.0
2014-Jul-16 00:29N 59°55' E 030°14'0 0.0
2014-Jul-15 23:32N 59°55' E 030°14'0 0.0
2014-Jul-15 22:32N 59°55' E 030°14'0 0.0
2014-Jul-15 21:32N 59°55' E 030°14'0 0.0
2014-Jul-15 20:29N 59°55' E 030°14'0 0.0
2014-Jul-15 19:32N 59°55' E 030°14'0 0.0
2014-Jul-15 18:32N 59°55' E 030°14'0 0.0
2014-Jul-15 16:33N 59°55' E 030°14'0 0.0
2014-Jul-15 15:33N 59°55' E 030°14'0 0.0
2014-Jul-15 14:33N 59°55' E 030°14'0 0.0
2014-Jul-15 13:33N 59°55' E 030°14'0 0.0
2014-Jul-15 12:33N 59°55' E 030°14'0 0.0
2014-Jul-15 11:33N 59°55' E 030°14'0 0.0
2014-Jul-15 10:33N 59°55' E 030°14'0 0.0
2014-Jul-15 09:33N 59°55' E 030°14'0 0.0
2014-Jul-15 08:33N 59°55' E 030°14'0 0.0
2014-Jul-15 07:33N 59°55' E 030°14'0 0.0
2014-Jul-15 06:33N 59°55' E 030°14'87 8.7
2014-Jul-14 20:34N 60°03' E 027°22'1211.6
2014-Jul-14 19:33N 59°58' E 027°02'1212.1
2014-Jul-14 18:33N 59°59' E 026°38'1111.2
2014-Jul-14 17:33N 59°48' E 026°30'1212.2
2014-Jul-14 16:33N 59°41' E 026°50'  
Track history (hours):
 
Tides and Currents Weather Stations Pressure Air Temp Water Temp Dewpoint Dewpoint Depression Visibility Wind Speed Wind Dir Waves Ship Positions

Medemborg

Last reported at 2014-Jul-24 14:32 UTC. Time now 2014-Jul-24 14:38 UTC.
Position N 51°54' E 004°14'.

Length 135 m; draft 7.2 m.

Type: Cargo ship. MMSI: 306581000.

Date/timePositionNaut miles runAvg speedWind from/ knotsBaromVisibWave heightAir tempDewpointWater temp
2014-Jul-24 14:32N 51°54' E 004°14'0 0.0
2014-Jul-24 13:32N 51°54' E 004°14'0 0.0
2014-Jul-24 12:32N 51°54' E 004°14'0 0.0
2014-Jul-24 11:32N 51°54' E 004°14'0 0.0
2014-Jul-24 10:32N 51°54' E 004°14'0 0.0
2014-Jul-24 09:32N 51°54' E 004°14'0 0.0
2014-Jul-24 08:32N 51°54' E 004°14'0 0.0
2014-Jul-24 07:26N 51°54' E 004°14'0 0.0
2014-Jul-24 06:32N 51°54' E 004°14'0 0.0
2014-Jul-24 05:29N 51°54' E 004°14'0 0.0
2014-Jul-24 04:32N 51°54' E 004°14'0 0.0
2014-Jul-24 03:32N 51°54' E 004°14'0 0.0
2014-Jul-24 02:32N 51°54' E 004°14'0 0.0
2014-Jul-24 01:32N 51°54' E 004°14'0 0.0
2014-Jul-24 00:32N 51°54' E 004°14'0 0.0
2014-Jul-23 23:32N 51°54' E 004°14'0 0.0
2014-Jul-23 22:32N 51°54' E 004°14'0 0.0
2014-Jul-23 21:32N 51°54' E 004°14'1 0.8
2014-Jul-23 20:33N 51°54' E 004°14'9 9.0
2014-Jul-23 19:33N 51°60' E 004°02'1010.4
2014-Jul-23 18:33N 52°04' E 003°46'1212.3
2014-Jul-23 17:34N 52°16' E 003°46'1212.4
2014-Jul-23 16:34N 52°28' E 003°50'1312.5
2014-Jul-23 15:33N 52°41' E 003°54'1212.3
2014-Jul-23 14:34N 52°53' E 003°58'1111.4
2014-Jul-23 13:33N 53°03' E 004°08'1212.2
2014-Jul-23 12:33N 53°10' E 004°23'1312.8
2014-Jul-23 11:33N 53°22' E 004°32'1312.8
2014-Jul-23 10:33N 53°30' E 004°49'1414.4
2014-Jul-23 09:34N 53°35' E 005°11'1414.1
2014-Jul-23 08:33N 53°40' E 005°34'1313.4
2014-Jul-23 07:33N 53°45' E 005°55'1312.7
2014-Jul-23 06:33N 53°49' E 006°16'1212.1
2014-Jul-23 05:33N 53°52' E 006°35'1212.2
2014-Jul-23 04:33N 53°55' E 006°55'1312.3
2014-Jul-23 03:33N 53°58' E 007°16'1313.0
2014-Jul-23 02:33N 54°01' E 007°37'1313.5
2014-Jul-23 01:33N 54°01' E 008°00'1413.9
2014-Jul-23 00:33N 53°59' E 008°23'1514.9
2014-Jul-22 23:33N 53°51' E 008°45'1312.8
2014-Jul-22 22:33N 53°53' E 009°06'2 1.7
2014-Jul-22 21:32N 53°54' E 009°09'7 7.1
2014-Jul-22 20:33N 53°59' E 009°17'9 8.4
2014-Jul-22 19:32N 54°07' E 009°20'9 8.0
2014-Jul-22 18:28N 54°12' E 009°32'37 3.0
2014-Jul-22 06:20N 54°32' E 010°25'1012.7
2014-Jul-22 05:33N 54°35' E 010°41'1312.9
2014-Jul-22 04:33N 54°36' E 011°04'1313.2
2014-Jul-22 03:33N 54°32' E 011°25'1313.0
2014-Jul-22 02:33N 54°27' E 011°46'1312.7
2014-Jul-22 01:33N 54°27' E 012°07'1212.2
2014-Jul-22 00:33N 54°38' E 012°16'1312.9
2014-Jul-21 23:33N 54°45' E 012°35'1312.7
2014-Jul-21 22:33N 54°50' E 012°55'1312.6
2014-Jul-21 21:33N 54°55' E 013°16'1312.6
2014-Jul-21 20:30N 54°59' E 013°38'212.7
2014-Jul-21 20:18N 55°00' E 013°42'1013.0
2014-Jul-21 19:33N 55°03' E 013°58'1312.8
2014-Jul-21 18:33N 55°12' E 014°14'1313.3
2014-Jul-21 17:33N 55°23' E 014°28'1312.8
2014-Jul-21 16:33N 55°31' E 014°46'4013.2
2014-Jul-21 13:33N 55°50' E 015°47'1413.5
2014-Jul-21 12:33N 55°57' E 016°08'1313.5
2014-Jul-21 11:33N 56°03' E 016°29'4013.3
2014-Jul-21 08:33N 56°27' E 017°27'1313.1
2014-Jul-21 07:33N 56°35' E 017°46'1813.3
2014-Jul-21 06:12N 56°46' E 018°12'913.4
2014-Jul-21 05:33N 56°51' E 018°24'1413.4
2014-Jul-21 04:31N 57°02' E 018°40'1313.4
2014-Jul-21 03:32N 57°13' E 018°55'1513.3
2014-Jul-21 02:26N 57°25' E 019°10'2613.3
2014-Jul-21 00:28N 57°45' E 019°39'2613.0
2014-Jul-20 22:26N 58°07' E 020°08'1213.3
2014-Jul-20 21:33N 58°16' E 020°21'2713.4
2014-Jul-20 19:31N 58°38' E 020°52'1313.4
2014-Jul-20 18:33N 58°49' E 021°07'1313.5
2014-Jul-20 17:33N 58°60' E 021°22'7712.9
2014-Jul-20 11:33N 59°40' E 023°31'1313.3
2014-Jul-20 10:33N 59°44' E 023°56'6013.5
2014-Jul-20 06:05N 59°56' E 025°54'2113.0
2014-Jul-20 04:28N 60°01' E 026°34'10812.1
2014-Jul-19 19:28N 59°53' E 030°10'3 2.9
2014-Jul-19 18:32N 59°55' E 030°14'0 0.0
2014-Jul-19 17:32N 59°55' E 030°14'0 0.0
2014-Jul-19 16:32N 59°55' E 030°14'0 0.0
2014-Jul-19 15:32N 59°55' E 030°14'0 0.0
2014-Jul-19 14:32N 59°55' E 030°14'0 0.0
2014-Jul-19 13:32N 59°55' E 030°14'0 0.0
2014-Jul-19 12:32N 59°55' E 030°14'0 0.0
2014-Jul-19 11:32N 59°55' E 030°14'0 0.0
2014-Jul-19 10:29N 59°55' E 030°14'0 0.0
2014-Jul-19 01:32N 59°55' E 030°14'0 0.0
2014-Jul-19 00:32N 59°55' E 030°14'0 0.0
2014-Jul-18 23:32N 59°55' E 030°14'0 0.0
2014-Jul-18 22:32N 59°55' E 030°14'0 0.0
2014-Jul-18 21:32N 59°55' E 030°14'0 0.0
2014-Jul-18 20:32N 59°55' E 030°14'0 0.0
2014-Jul-18 19:29N 59°55' E 030°14'0 0.0
2014-Jul-18 18:29N 59°55' E 030°14'0 0.0
2014-Jul-18 17:32N 59°55' E 030°14'0 0.0
2014-Jul-18 16:32N 59°55' E 030°14'0 0.0
2014-Jul-18 15:32N 59°55' E 030°14'0 0.0
2014-Jul-18 14:32N 59°55' E 030°14'0 0.0
2014-Jul-18 13:29N 59°55' E 030°14'0 0.0
2014-Jul-18 12:32N 59°55' E 030°14'0 0.0
2014-Jul-18 11:32N 59°55' E 030°14'0 0.0
2014-Jul-18 10:32N 59°55' E 030°14'0 0.0
2014-Jul-18 09:29N 59°55' E 030°14'0 0.0
2014-Jul-18 08:32N 59°55' E 030°14'0 0.0
2014-Jul-18 07:32N 59°55' E 030°14'0 0.0
2014-Jul-18 06:29N 59°55' E 030°14'0 0.0
2014-Jul-18 05:32N 59°55' E 030°14'0 0.0
2014-Jul-18 04:32N 59°55' E 030°14'0 0.0
2014-Jul-18 03:32N 59°55' E 030°14'0 0.0
2014-Jul-18 02:32N 59°55' E 030°14'0 0.0
2014-Jul-18 01:32N 59°55' E 030°14'0 0.0
2014-Jul-18 00:32N 59°55' E 030°14'0 0.0
2014-Jul-17 23:32N 59°55' E 030°14'0 0.0
2014-Jul-17 22:32N 59°55' E 030°14'0 0.0
2014-Jul-17 21:32N 59°55' E 030°14'0 0.0
2014-Jul-17 20:32N 59°55' E 030°14'0 0.0
2014-Jul-17 19:32N 59°55' E 030°14'0 0.0
2014-Jul-17 18:32N 59°55' E 030°14'0 0.0
2014-Jul-17 17:29N 59°55' E 030°14'0 0.0
2014-Jul-17 16:32N 59°55' E 030°14'0 0.0
2014-Jul-17 15:32N 59°55' E 030°14'0 0.0
2014-Jul-17 14:32N 59°55' E 030°14'0 0.0
2014-Jul-17 13:32N 59°55' E 030°14'0 0.0
2014-Jul-17 12:32N 59°55' E 030°14'0 0.0
2014-Jul-17 07:29N 59°55' E 030°14'0 0.0
2014-Jul-17 06:32N 59°55' E 030°14'0 0.0
2014-Jul-17 05:32N 59°55' E 030°14'0 0.0
2014-Jul-17 04:29N 59°55' E 030°14'0 0.0
2014-Jul-17 03:32N 59°55' E 030°14'0 0.0
2014-Jul-17 02:32N 59°55' E 030°14'0 0.0
2014-Jul-17 01:32N 59°55' E 030°14'0 0.0
2014-Jul-17 00:32N 59°55' E 030°14'0 0.0
2014-Jul-16 23:32N 59°55' E 030°14'0 0.0
2014-Jul-16 22:32N 59°55' E 030°14'0 0.0
2014-Jul-16 21:32N 59°55' E 030°14'0 0.0
2014-Jul-16 20:32N 59°55' E 030°14'0 0.0
2014-Jul-16 19:32N 59°55' E 030°14'0 0.0
2014-Jul-16 18:29N 59°55' E 030°14'0 0.0
2014-Jul-16 17:29N 59°55' E 030°14'0 0.0
2014-Jul-16 16:32N 59°55' E 030°14'0 0.0
2014-Jul-16 15:32N 59°55' E 030°14'0 0.0
2014-Jul-16 14:32N 59°55' E 030°14'0 0.0
2014-Jul-16 13:32N 59°55' E 030°14'0 0.0
2014-Jul-16 12:29N 59°55' E 030°14'0 0.0
2014-Jul-16 11:23N 59°55' E 030°14'0 0.0
2014-Jul-16 10:32N 59°55' E 030°14'0 0.0
2014-Jul-16 09:32N 59°55' E 030°14'0 0.0
2014-Jul-16 08:32N 59°55' E 030°14'0 0.0
2014-Jul-16 07:32N 59°55' E 030°14'0 0.0
2014-Jul-16 06:29N 59°55' E 030°14'0 0.0
2014-Jul-16 05:32N 59°55' E 030°14'0 0.0
2014-Jul-16 04:32N 59°55' E 030°14'0 0.0
2014-Jul-16 03:32N 59°55' E 030°14'0 0.0
2014-Jul-16 02:32N 59°55' E 030°14'0 0.0
2014-Jul-16 01:32N 59°55' E 030°14'0 0.0
2014-Jul-16 00:29N 59°55' E 030°14'0 0.0
2014-Jul-15 23:32N 59°55' E 030°14'0 0.0
2014-Jul-15 22:32N 59°55' E 030°14'0 0.0
2014-Jul-15 21:32N 59°55' E 030°14'0 0.0
2014-Jul-15 20:29N 59°55' E 030°14'0 0.0
2014-Jul-15 19:32N 59°55' E 030°14'0 0.0
2014-Jul-15 18:32N 59°55' E 030°14'0 0.0
2014-Jul-15 16:33N 59°55' E 030°14'0 0.0
2014-Jul-15 15:33N 59°55' E 030°14'0 0.0
2014-Jul-15 14:33N 59°55' E 030°14'0 0.0
2014-Jul-15 13:33N 59°55' E 030°14'0 0.0
2014-Jul-15 12:33N 59°55' E 030°14'0 0.0
2014-Jul-15 11:33N 59°55' E 030°14'0 0.0
2014-Jul-15 10:33N 59°55' E 030°14'0 0.0
2014-Jul-15 09:33N 59°55' E 030°14'0 0.0
2014-Jul-15 08:33N 59°55' E 030°14'0 0.0
2014-Jul-15 07:33N 59°55' E 030°14'0 0.0
2014-Jul-15 06:33N 59°55' E 030°14'87 8.7
2014-Jul-14 20:34N 60°03' E 027°22'1211.6
2014-Jul-14 19:33N 59°58' E 027°02'1212.1
2014-Jul-14 18:33N 59°59' E 026°38'1111.2
2014-Jul-14 17:33N 59°48' E 026°30'1212.2
2014-Jul-14 16:33N 59°41' E 026°50'  

Dump ship's entire track history